sensor_id;sensor_type;location;lat;lon;timestamp;P1;durP1;ratioP1;P2;durP2;ratioP2
28529;SDS011;15737;49.760;6.632;2022-10-16T00:02:19;1.60;;;0.83;;
28529;SDS011;15737;49.760;6.632;2022-10-16T00:04:44;3.17;;;0.90;;
28529;SDS011;15737;49.760;6.632;2022-10-16T00:07:10;1.93;;;0.83;;
28529;SDS011;15737;49.760;6.632;2022-10-16T00:09:35;0.90;;;0.90;;
28529;SDS011;15737;49.760;6.632;2022-10-16T00:14:26;0.87;;;0.80;;
28529;SDS011;15737;49.760;6.632;2022-10-16T00:16:51;1.87;;;0.90;;
28529;SDS011;15737;49.760;6.632;2022-10-16T00:19:17;4.27;;;1.40;;
28529;SDS011;15737;49.760;6.632;2022-10-16T00:21:42;2.53;;;0.90;;
28529;SDS011;15737;49.760;6.632;2022-10-16T00:24:09;0.73;;;0.73;;
28529;SDS011;15737;49.760;6.632;2022-10-16T00:26:34;0.93;;;0.83;;
28529;SDS011;15737;49.760;6.632;2022-10-16T00:29:02;0.87;;;0.83;;
28529;SDS011;15737;49.760;6.632;2022-10-16T00:31:28;2.77;;;1.10;;
28529;SDS011;15737;49.760;6.632;2022-10-16T00:33:54;1.87;;;1.00;;
28529;SDS011;15737;49.760;6.632;2022-10-16T00:36:21;1.17;;;1.10;;
28529;SDS011;15737;49.760;6.632;2022-10-16T00:38:55;0.93;;;0.93;;
28529;SDS011;15737;49.760;6.632;2022-10-16T00:41:23;0.97;;;0.97;;
28529;SDS011;15737;49.760;6.632;2022-10-16T00:43:50;2.97;;;0.90;;
28529;SDS011;15737;49.760;6.632;2022-10-16T00:46:23;1.40;;;1.10;;
28529;SDS011;15737;49.760;6.632;2022-10-16T00:49:03;1.17;;;1.00;;
28529;SDS011;15737;49.760;6.632;2022-10-16T00:51:32;2.37;;;1.57;;
28529;SDS011;15737;49.760;6.632;2022-10-16T00:54:31;1.63;;;1.10;;
28529;SDS011;15737;49.760;6.632;2022-10-16T00:56:59;5.63;;;1.60;;
28529;SDS011;15737;49.760;6.632;2022-10-16T00:59:31;2.50;;;1.00;;
28529;SDS011;15737;49.760;6.632;2022-10-16T01:02:00;3.17;;;1.20;;
28529;SDS011;15737;49.760;6.632;2022-10-16T01:04:28;1.27;;;0.90;;
28529;SDS011;15737;49.760;6.632;2022-10-16T01:07:06;3.50;;;1.00;;
28529;SDS011;15737;49.760;6.632;2022-10-16T01:09:47;2.00;;;0.93;;
28529;SDS011;15737;49.760;6.632;2022-10-16T01:15:14;2.20;;;0.90;;
28529;SDS011;15737;49.760;6.632;2022-10-16T01:20:51;2.70;;;0.60;;
28529;SDS011;15737;49.760;6.632;2022-10-16T01:29:35;1.20;;;1.10;;
28529;SDS011;15737;49.760;6.632;2022-10-16T01:32:16;2.50;;;0.80;;
28529;SDS011;15737;49.760;6.632;2022-10-16T01:34:47;0.70;;;0.70;;
28529;SDS011;15737;49.760;6.632;2022-10-16T01:37:36;0.80;;;0.80;;
28529;SDS011;15737;49.760;6.632;2022-10-16T01:40:09;0.67;;;0.67;;
28529;SDS011;15737;49.760;6.632;2022-10-16T01:42:39;0.60;;;0.60;;
28529;SDS011;15737;49.760;6.632;2022-10-16T01:47:37;0.70;;;0.70;;
28529;SDS011;15737;49.760;6.632;2022-10-16T01:50:03;1.63;;;0.77;;
28529;SDS011;15737;49.760;6.632;2022-10-16T01:52:30;0.83;;;0.83;;
28529;SDS011;15737;49.760;6.632;2022-10-16T01:54:59;1.00;;;0.70;;
28529;SDS011;15737;49.760;6.632;2022-10-16T01:57:28;0.97;;;0.70;;
28529;SDS011;15737;49.760;6.632;2022-10-16T01:59:56;1.17;;;0.57;;
28529;SDS011;15737;49.760;6.632;2022-10-16T02:02:26;0.80;;;0.80;;
28529;SDS011;15737;49.760;6.632;2022-10-16T02:04:57;2.90;;;0.67;;
28529;SDS011;15737;49.760;6.632;2022-10-16T02:07:26;0.80;;;0.80;;
28529;SDS011;15737;49.760;6.632;2022-10-16T02:09:52;0.70;;;0.70;;
28529;SDS011;15737;49.760;6.632;2022-10-16T02:12:23;0.60;;;0.50;;
28529;SDS011;15737;49.760;6.632;2022-10-16T02:14:53;1.63;;;0.70;;
28529;SDS011;15737;49.760;6.632;2022-10-16T02:17:19;0.90;;;0.90;;
28529;SDS011;15737;49.760;6.632;2022-10-16T02:19:46;1.37;;;0.60;;
28529;SDS011;15737;49.760;6.632;2022-10-16T02:22:27;0.70;;;0.70;;
28529;SDS011;15737;49.760;6.632;2022-10-16T02:25:07;1.20;;;0.70;;
28529;SDS011;15737;49.760;6.632;2022-10-16T02:33:00;0.70;;;0.70;;
28529;SDS011;15737;49.760;6.632;2022-10-16T02:35:27;5.37;;;1.10;;
28529;SDS011;15737;49.760;6.632;2022-10-16T02:37:54;0.77;;;0.73;;
28529;SDS011;15737;49.760;6.632;2022-10-16T02:40:22;2.23;;;1.20;;
28529;SDS011;15737;49.760;6.632;2022-10-16T02:42:49;3.07;;;1.13;;
28529;SDS011;15737;49.760;6.632;2022-10-16T02:45:17;0.87;;;0.87;;
28529;SDS011;15737;49.760;6.632;2022-10-16T02:47:43;0.87;;;0.80;;
28529;SDS011;15737;49.760;6.632;2022-10-16T02:50:09;0.97;;;0.90;;
28529;SDS011;15737;49.760;6.632;2022-10-16T02:52:34;1.00;;;0.80;;
28529;SDS011;15737;49.760;6.632;2022-10-16T02:55:00;0.70;;;0.70;;
28529;SDS011;15737;49.760;6.632;2022-10-16T02:57:25;0.70;;;0.70;;
28529;SDS011;15737;49.760;6.632;2022-10-16T02:59:51;2.73;;;0.77;;
28529;SDS011;15737;49.760;6.632;2022-10-16T03:02:17;1.00;;;0.67;;
28529;SDS011;15737;49.760;6.632;2022-10-16T03:04:42;1.00;;;1.00;;
28529;SDS011;15737;49.760;6.632;2022-10-16T03:07:08;0.80;;;0.67;;
28529;SDS011;15737;49.760;6.632;2022-10-16T03:09:33;1.43;;;0.70;;
28529;SDS011;15737;49.760;6.632;2022-10-16T03:11:59;0.70;;;0.70;;
28529;SDS011;15737;49.760;6.632;2022-10-16T03:14:24;1.23;;;0.83;;
28529;SDS011;15737;49.760;6.632;2022-10-16T03:16:50;0.70;;;0.70;;
28529;SDS011;15737;49.760;6.632;2022-10-16T03:19:16;3.70;;;1.00;;
28529;SDS011;15737;49.760;6.632;2022-10-16T03:21:42;0.90;;;0.90;;
28529;SDS011;15737;49.760;6.632;2022-10-16T03:24:07;1.27;;;0.73;;
28529;SDS011;15737;49.760;6.632;2022-10-16T03:26:33;0.83;;;0.83;;
28529;SDS011;15737;49.760;6.632;2022-10-16T03:28:58;0.70;;;0.70;;
28529;SDS011;15737;49.760;6.632;2022-10-16T03:31:24;5.10;;;0.93;;
28529;SDS011;15737;49.760;6.632;2022-10-16T03:33:49;1.50;;;1.00;;
28529;SDS011;15737;49.760;6.632;2022-10-16T03:36:15;1.50;;;0.97;;
28529;SDS011;15737;49.760;6.632;2022-10-16T03:38:43;1.17;;;0.87;;
28529;SDS011;15737;49.760;6.632;2022-10-16T03:41:08;2.47;;;1.33;;
28529;SDS011;15737;49.760;6.632;2022-10-16T03:43:34;0.90;;;0.80;;
28529;SDS011;15737;49.760;6.632;2022-10-16T03:45:59;2.77;;;0.70;;
28529;SDS011;15737;49.760;6.632;2022-10-16T03:48:25;0.77;;;0.77;;
28529;SDS011;15737;49.760;6.632;2022-10-16T03:50:50;0.97;;;0.80;;
28529;SDS011;15737;49.760;6.632;2022-10-16T03:53:16;0.80;;;0.80;;
28529;SDS011;15737;49.760;6.632;2022-10-16T03:55:42;2.73;;;0.80;;
28529;SDS011;15737;49.760;6.632;2022-10-16T03:58:08;1.80;;;0.90;;
28529;SDS011;15737;49.760;6.632;2022-10-16T04:00:34;1.47;;;0.80;;
28529;SDS011;15737;49.760;6.632;2022-10-16T04:03:03;0.90;;;0.90;;
28529;SDS011;15737;49.760;6.632;2022-10-16T04:05:28;0.87;;;0.83;;
28529;SDS011;15737;49.760;6.632;2022-10-16T04:07:54;0.90;;;0.70;;
28529;SDS011;15737;49.760;6.632;2022-10-16T04:10:20;0.77;;;0.77;;
28529;SDS011;15737;49.760;6.632;2022-10-16T04:12:45;1.07;;;0.90;;
28529;SDS011;15737;49.760;6.632;2022-10-16T04:15:11;2.87;;;0.97;;
28529;SDS011;15737;49.760;6.632;2022-10-16T04:17:36;1.40;;;1.00;;
28529;SDS011;15737;49.760;6.632;2022-10-16T04:20:02;1.17;;;0.90;;
28529;SDS011;15737;49.760;6.632;2022-10-16T04:22:28;1.37;;;1.00;;
28529;SDS011;15737;49.760;6.632;2022-10-16T04:24:53;1.10;;;0.73;;
28529;SDS011;15737;49.760;6.632;2022-10-16T04:27:19;1.00;;;0.63;;
28529;SDS011;15737;49.760;6.632;2022-10-16T04:30:00;1.50;;;1.10;;
28529;SDS011;15737;49.760;6.632;2022-10-16T04:32:26;1.10;;;1.00;;
28529;SDS011;15737;49.760;6.632;2022-10-16T04:37:24;0.60;;;0.60;;
28529;SDS011;15737;49.760;6.632;2022-10-16T04:39:50;0.73;;;0.67;;
28529;SDS011;15737;49.760;6.632;2022-10-16T04:42:16;0.93;;;0.73;;
28529;SDS011;15737;49.760;6.632;2022-10-16T04:44:42;1.20;;;0.90;;
28529;SDS011;15737;49.760;6.632;2022-10-16T04:47:07;1.33;;;0.80;;
28529;SDS011;15737;49.760;6.632;2022-10-16T04:49:33;3.30;;;0.87;;
28529;SDS011;15737;49.760;6.632;2022-10-16T04:51:58;2.40;;;0.77;;
28529;SDS011;15737;49.760;6.632;2022-10-16T04:54:24;1.27;;;0.67;;
28529;SDS011;15737;49.760;6.632;2022-10-16T04:56:49;1.17;;;0.50;;
28529;SDS011;15737;49.760;6.632;2022-10-16T04:59:17;2.87;;;0.80;;
28529;SDS011;15737;49.760;6.632;2022-10-16T05:01:43;0.60;;;0.60;;
28529;SDS011;15737;49.760;6.632;2022-10-16T05:04:09;0.23;;;0.23;;
28529;SDS011;15737;49.760;6.632;2022-10-16T05:06:35;1.43;;;0.70;;
28529;SDS011;15737;49.760;6.632;2022-10-16T05:09:01;1.43;;;0.70;;
28529;SDS011;15737;49.760;6.632;2022-10-16T05:11:27;0.60;;;0.60;;
28529;SDS011;15737;49.760;6.632;2022-10-16T05:13:52;0.90;;;0.80;;
28529;SDS011;15737;49.760;6.632;2022-10-16T05:16:18;1.10;;;0.63;;
28529;SDS011;15737;49.760;6.632;2022-10-16T05:18:43;2.00;;;0.67;;
28529;SDS011;15737;49.760;6.632;2022-10-16T05:21:09;0.50;;;0.50;;
28529;SDS011;15737;49.760;6.632;2022-10-16T05:23:46;0.53;;;0.53;;
28529;SDS011;15737;49.760;6.632;2022-10-16T05:26:12;0.53;;;0.50;;
28529;SDS011;15737;49.760;6.632;2022-10-16T05:28:37;1.50;;;0.60;;
28529;SDS011;15737;49.760;6.632;2022-10-16T05:31:06;1.40;;;0.50;;
28529;SDS011;15737;49.760;6.632;2022-10-16T05:33:33;0.70;;;0.70;;
28529;SDS011;15737;49.760;6.632;2022-10-16T05:36:05;0.93;;;0.73;;
28529;SDS011;15737;49.760;6.632;2022-10-16T05:38:37;0.60;;;0.60;;
28529;SDS011;15737;49.760;6.632;2022-10-16T05:41:03;2.30;;;0.60;;
28529;SDS011;15737;49.760;6.632;2022-10-16T05:43:30;3.30;;;0.50;;
28529;SDS011;15737;49.760;6.632;2022-10-16T05:45:56;0.83;;;0.67;;
28529;SDS011;15737;49.760;6.632;2022-10-16T05:48:27;3.40;;;0.40;;
28529;SDS011;15737;49.760;6.632;2022-10-16T05:50:57;0.50;;;0.50;;
28529;SDS011;15737;49.760;6.632;2022-10-16T05:53:24;2.20;;;0.60;;
28529;SDS011;15737;49.760;6.632;2022-10-16T05:55:56;1.03;;;0.70;;
28529;SDS011;15737;49.760;6.632;2022-10-16T05:58:23;0.80;;;0.80;;
28529;SDS011;15737;49.760;6.632;2022-10-16T06:00:53;1.30;;;0.57;;
28529;SDS011;15737;49.760;6.632;2022-10-16T06:03:23;0.97;;;0.67;;
28529;SDS011;15737;49.760;6.632;2022-10-16T06:05:49;0.80;;;0.77;;
28529;SDS011;15737;49.760;6.632;2022-10-16T06:08:15;0.87;;;0.87;;
28529;SDS011;15737;49.760;6.632;2022-10-16T06:10:41;0.83;;;0.70;;
28529;SDS011;15737;49.760;6.632;2022-10-16T06:13:07;1.00;;;0.80;;
28529;SDS011;15737;49.760;6.632;2022-10-16T06:15:32;1.53;;;0.60;;
28529;SDS011;15737;49.760;6.632;2022-10-16T06:17:57;4.90;;;0.97;;
28529;SDS011;15737;49.760;6.632;2022-10-16T06:20:35;4.20;;;0.90;;
28529;SDS011;15737;49.760;6.632;2022-10-16T06:23:02;0.70;;;0.70;;
28529;SDS011;15737;49.760;6.632;2022-10-16T06:25:29;1.03;;;0.90;;
28529;SDS011;15737;49.760;6.632;2022-10-16T06:27:57;1.00;;;0.83;;
28529;SDS011;15737;49.760;6.632;2022-10-16T06:30:22;1.57;;;1.20;;
28529;SDS011;15737;49.760;6.632;2022-10-16T06:32:48;0.80;;;0.80;;
28529;SDS011;15737;49.760;6.632;2022-10-16T06:35:13;2.00;;;1.03;;
28529;SDS011;15737;49.760;6.632;2022-10-16T06:37:39;4.30;;;1.10;;
28529;SDS011;15737;49.760;6.632;2022-10-16T06:40:05;1.17;;;1.07;;
28529;SDS011;15737;49.760;6.632;2022-10-16T06:42:31;1.80;;;0.70;;
28529;SDS011;15737;49.760;6.632;2022-10-16T06:44:56;0.80;;;0.80;;
28529;SDS011;15737;49.760;6.632;2022-10-16T06:47:22;5.23;;;1.00;;
28529;SDS011;15737;49.760;6.632;2022-10-16T06:49:47;0.93;;;0.80;;
28529;SDS011;15737;49.760;6.632;2022-10-16T06:52:13;3.47;;;0.90;;
28529;SDS011;15737;49.760;6.632;2022-10-16T06:54:38;0.80;;;0.80;;
28529;SDS011;15737;49.760;6.632;2022-10-16T06:57:04;0.90;;;0.80;;
28529;SDS011;15737;49.760;6.632;2022-10-16T06:59:29;4.13;;;1.40;;
28529;SDS011;15737;49.760;6.632;2022-10-16T07:01:55;1.57;;;0.90;;
28529;SDS011;15737;49.760;6.632;2022-10-16T07:04:20;2.27;;;0.83;;
28529;SDS011;15737;49.760;6.632;2022-10-16T07:06:46;4.20;;;1.00;;
28529;SDS011;15737;49.760;6.632;2022-10-16T07:09:11;3.77;;;1.00;;
28529;SDS011;15737;49.760;6.632;2022-10-16T07:11:38;6.30;;;1.57;;
28529;SDS011;15737;49.760;6.632;2022-10-16T07:14:05;2.60;;;1.10;;
28529;SDS011;15737;49.760;6.632;2022-10-16T07:16:41;3.20;;;0.97;;
28529;SDS011;15737;49.760;6.632;2022-10-16T07:19:07;1.00;;;1.00;;
28529;SDS011;15737;49.760;6.632;2022-10-16T07:21:34;3.20;;;1.20;;
28529;SDS011;15737;49.760;6.632;2022-10-16T07:24:03;1.60;;;1.50;;
28529;SDS011;15737;49.760;6.632;2022-10-16T07:26:35;2.53;;;1.20;;
28529;SDS011;15737;49.760;6.632;2022-10-16T07:29:04;1.50;;;1.40;;
28529;SDS011;15737;49.760;6.632;2022-10-16T07:31:30;4.87;;;1.67;;
28529;SDS011;15737;49.760;6.632;2022-10-16T07:33:57;2.50;;;1.50;;
28529;SDS011;15737;49.760;6.632;2022-10-16T07:36:23;3.67;;;1.30;;
28529;SDS011;15737;49.760;6.632;2022-10-16T07:38:49;2.67;;;1.47;;
28529;SDS011;15737;49.760;6.632;2022-10-16T07:41:19;2.93;;;2.40;;
28529;SDS011;15737;49.760;6.632;2022-10-16T07:43:48;2.90;;;2.00;;
28529;SDS011;15737;49.760;6.632;2022-10-16T07:46:15;5.07;;;1.80;;
28529;SDS011;15737;49.760;6.632;2022-10-16T07:48:42;6.93;;;2.10;;
28529;SDS011;15737;49.760;6.632;2022-10-16T07:51:11;8.23;;;2.10;;
28529;SDS011;15737;49.760;6.632;2022-10-16T07:53:38;2.70;;;2.00;;
28529;SDS011;15737;49.760;6.632;2022-10-16T07:56:21;1.90;;;1.80;;
28529;SDS011;15737;49.760;6.632;2022-10-16T07:58:47;3.73;;;2.00;;
28529;SDS011;15737;49.760;6.632;2022-10-16T08:01:15;1.87;;;1.77;;
28529;SDS011;15737;49.760;6.632;2022-10-16T08:03:42;5.17;;;1.70;;
28529;SDS011;15737;49.760;6.632;2022-10-16T08:06:08;5.10;;;1.97;;
28529;SDS011;15737;49.760;6.632;2022-10-16T08:08:35;3.57;;;2.30;;
28529;SDS011;15737;49.760;6.632;2022-10-16T08:11:13;1.53;;;1.43;;
28529;SDS011;15737;49.760;6.632;2022-10-16T08:13:39;5.67;;;1.60;;
28529;SDS011;15737;49.760;6.632;2022-10-16T08:16:06;1.87;;;1.77;;
28529;SDS011;15737;49.760;6.632;2022-10-16T08:18:34;4.07;;;1.90;;
28529;SDS011;15737;49.760;6.632;2022-10-16T08:21:00;1.80;;;1.70;;
28529;SDS011;15737;49.760;6.632;2022-10-16T08:23:26;4.87;;;2.07;;
28529;SDS011;15737;49.760;6.632;2022-10-16T08:25:54;2.87;;;2.10;;
28529;SDS011;15737;49.760;6.632;2022-10-16T08:28:20;2.40;;;2.03;;
28529;SDS011;15737;49.760;6.632;2022-10-16T08:30:46;1.97;;;1.70;;
28529;SDS011;15737;49.760;6.632;2022-10-16T08:33:12;4.23;;;2.17;;
28529;SDS011;15737;49.760;6.632;2022-10-16T08:35:39;3.03;;;2.00;;
28529;SDS011;15737;49.760;6.632;2022-10-16T08:38:05;4.63;;;2.80;;
28529;SDS011;15737;49.760;6.632;2022-10-16T08:40:32;4.17;;;3.07;;
28529;SDS011;15737;49.760;6.632;2022-10-16T08:51:22;5.47;;;2.10;;
28529;SDS011;15737;49.760;6.632;2022-10-16T08:53:53;5.00;;;2.00;;
28529;SDS011;15737;49.760;6.632;2022-10-16T08:56:23;3.10;;;2.43;;
28529;SDS011;15737;49.760;6.632;2022-10-16T08:59:03;4.80;;;2.80;;
28529;SDS011;15737;49.760;6.632;2022-10-16T09:01:44;5.17;;;2.70;;
28529;SDS011;15737;49.760;6.632;2022-10-16T09:15:03;3.37;;;3.07;;
28529;SDS011;15737;49.760;6.632;2022-10-16T09:17:48;3.00;;;2.17;;
28529;SDS011;15737;49.760;6.632;2022-10-16T09:20:42;4.73;;;2.07;;
28529;SDS011;15737;49.760;6.632;2022-10-16T09:23:16;2.43;;;2.20;;
28529;SDS011;15737;49.760;6.632;2022-10-16T09:25:49;3.63;;;1.40;;
28529;SDS011;15737;49.760;6.632;2022-10-16T09:28:16;1.77;;;1.17;;
28529;SDS011;15737;49.760;6.632;2022-10-16T09:30:42;1.70;;;1.40;;
28529;SDS011;15737;49.760;6.632;2022-10-16T09:33:09;3.90;;;1.63;;
28529;SDS011;15737;49.760;6.632;2022-10-16T09:35:42;1.30;;;1.30;;
28529;SDS011;15737;49.760;6.632;2022-10-16T09:38:20;6.23;;;1.37;;
28529;SDS011;15737;49.760;6.632;2022-10-16T09:40:47;2.10;;;1.90;;
28529;SDS011;15737;49.760;6.632;2022-10-16T09:45:58;2.57;;;1.90;;
28529;SDS011;15737;49.760;6.632;2022-10-16T09:48:25;3.90;;;1.57;;
28529;SDS011;15737;49.760;6.632;2022-10-16T09:51:02;1.70;;;1.60;;
28529;SDS011;15737;49.760;6.632;2022-10-16T09:53:40;2.63;;;1.80;;
28529;SDS011;15737;49.760;6.632;2022-10-16T09:56:09;2.57;;;1.60;;
28529;SDS011;15737;49.760;6.632;2022-10-16T09:58:56;2.20;;;1.40;;
28529;SDS011;15737;49.760;6.632;2022-10-16T10:01:25;1.20;;;1.10;;
28529;SDS011;15737;49.760;6.632;2022-10-16T10:03:55;0.80;;;0.80;;
28529;SDS011;15737;49.760;6.632;2022-10-16T10:06:27;0.65;;;0.65;;
28529;SDS011;15737;49.760;6.632;2022-10-16T10:08:57;0.85;;;0.70;;
28529;SDS011;15737;49.760;6.632;2022-10-16T10:14:02;1.45;;;0.70;;
28529;SDS011;15737;49.760;6.632;2022-10-16T10:16:51;0.50;;;0.50;;
28529;SDS011;15737;49.760;6.632;2022-10-16T10:19:26;1.13;;;0.60;;
28529;SDS011;15737;49.760;6.632;2022-10-16T10:21:52;0.60;;;0.60;;
28529;SDS011;15737;49.760;6.632;2022-10-16T10:24:18;0.52;;;0.52;;
28529;SDS011;15737;49.760;6.632;2022-10-16T10:26:47;2.38;;;0.68;;
28529;SDS011;15737;49.760;6.632;2022-10-16T10:32:57;0.50;;;0.50;;
28529;SDS011;15737;49.760;6.632;2022-10-16T10:35:39;0.68;;;0.52;;
28529;SDS011;15737;49.760;6.632;2022-10-16T10:40:58;0.70;;;0.70;;
28529;SDS011;15737;49.760;6.632;2022-10-16T10:43:45;1.95;;;0.70;;
28529;SDS011;15737;49.760;6.632;2022-10-16T10:46:19;0.70;;;0.70;;
28529;SDS011;15737;49.760;6.632;2022-10-16T10:49:08;1.33;;;0.80;;
28529;SDS011;15737;49.760;6.632;2022-10-16T10:52:13;0.63;;;0.63;;
28529;SDS011;15737;49.760;6.632;2022-10-16T10:58:10;1.95;;;0.85;;
28529;SDS011;15737;49.760;6.632;2022-10-16T11:01:01;1.33;;;0.70;;
28529;SDS011;15737;49.760;6.632;2022-10-16T11:03:42;2.38;;;0.47;;
28529;SDS011;15737;49.760;6.632;2022-10-16T11:11:49;1.20;;;0.60;;
28529;SDS011;15737;49.760;6.632;2022-10-16T11:14:43;2.33;;;0.60;;
28529;SDS011;15737;49.760;6.632;2022-10-16T11:17:27;0.77;;;0.60;;
28529;SDS011;15737;49.760;6.632;2022-10-16T11:22:38;1.40;;;0.80;;
28529;SDS011;15737;49.760;6.632;2022-10-16T11:25:13;0.85;;;0.85;;
28529;SDS011;15737;49.760;6.632;2022-10-16T11:28:01;1.08;;;0.82;;
28529;SDS011;15737;49.760;6.632;2022-10-16T11:30:50;1.02;;;0.70;;
28529;SDS011;15737;49.760;6.632;2022-10-16T11:47:30;1.33;;;1.03;;
28529;SDS011;15737;49.760;6.632;2022-10-16T11:52:55;1.20;;;1.10;;
28529;SDS011;15737;49.760;6.632;2022-10-16T11:55:42;1.05;;;1.00;;
28529;SDS011;15737;49.760;6.632;2022-10-16T12:03:36;1.58;;;1.15;;
28529;SDS011;15737;49.760;6.632;2022-10-16T12:06:37;1.00;;;1.00;;
28529;SDS011;15737;49.760;6.632;2022-10-16T12:09:15;1.48;;;1.23;;
28529;SDS011;15737;49.760;6.632;2022-10-16T12:11:47;2.03;;;1.20;;
28529;SDS011;15737;49.760;6.632;2022-10-16T12:14:18;1.30;;;1.20;;
28529;SDS011;15737;49.760;6.632;2022-10-16T12:16:53;1.42;;;1.33;;
28529;SDS011;15737;49.760;6.632;2022-10-16T12:19:21;1.50;;;1.40;;
28529;SDS011;15737;49.760;6.632;2022-10-16T12:21:48;1.40;;;1.30;;
28529;SDS011;15737;49.760;6.632;2022-10-16T12:24:36;1.65;;;1.55;;
28529;SDS011;15737;49.760;6.632;2022-10-16T12:27:20;1.23;;;1.13;;
28529;SDS011;15737;49.760;6.632;2022-10-16T12:29:57;1.60;;;1.50;;
28529;SDS011;15737;49.760;6.632;2022-10-16T12:32:27;1.50;;;1.40;;
28529;SDS011;15737;49.760;6.632;2022-10-16T12:34:58;1.35;;;1.15;;
28529;SDS011;15737;49.760;6.632;2022-10-16T12:37:27;2.13;;;1.35;;
28529;SDS011;15737;49.760;6.632;2022-10-16T12:42:47;2.50;;;1.63;;
28529;SDS011;15737;49.760;6.632;2022-10-16T12:45:29;1.77;;;1.35;;
28529;SDS011;15737;49.760;6.632;2022-10-16T12:47:56;2.00;;;1.50;;
28529;SDS011;15737;49.760;6.632;2022-10-16T12:50:29;4.72;;;1.23;;
28529;SDS011;15737;49.760;6.632;2022-10-16T12:53:00;2.80;;;1.23;;
28529;SDS011;15737;49.760;6.632;2022-10-16T12:55:29;1.40;;;1.30;;
28529;SDS011;15737;49.760;6.632;2022-10-16T12:58:17;3.00;;;1.40;;
28529;SDS011;15737;49.760;6.632;2022-10-16T13:01:03;4.70;;;1.42;;
28529;SDS011;15737;49.760;6.632;2022-10-16T13:06:38;1.30;;;1.08;;
28529;SDS011;15737;49.760;6.632;2022-10-16T13:14:57;1.40;;;1.30;;
28529;SDS011;15737;49.760;6.632;2022-10-16T13:20:51;1.90;;;1.40;;
28529;SDS011;15737;49.760;6.632;2022-10-16T13:29:09;1.70;;;1.60;;
28529;SDS011;15737;49.760;6.632;2022-10-16T13:31:37;1.60;;;1.50;;
28529;SDS011;15737;49.760;6.632;2022-10-16T13:34:03;4.15;;;1.95;;
28529;SDS011;15737;49.760;6.632;2022-10-16T13:36:35;1.38;;;1.27;;
28529;SDS011;15737;49.760;6.632;2022-10-16T13:41:37;1.40;;;1.30;;
28529;SDS011;15737;49.760;6.632;2022-10-16T13:44:03;1.42;;;1.33;;
28529;SDS011;15737;49.760;6.632;2022-10-16T13:51:37;1.70;;;1.58;;
28529;SDS011;15737;49.760;6.632;2022-10-16T13:54:02;1.23;;;1.23;;
28529;SDS011;15737;49.760;6.632;2022-10-16T13:56:29;2.58;;;1.60;;
28529;SDS011;15737;49.760;6.632;2022-10-16T13:59:04;1.38;;;1.27;;
28529;SDS011;15737;49.760;6.632;2022-10-16T14:04:04;2.22;;;1.58;;
28529;SDS011;15737;49.760;6.632;2022-10-16T14:06:33;1.63;;;1.50;;
28529;SDS011;15737;49.760;6.632;2022-10-16T14:11:57;4.55;;;2.05;;
28529;SDS011;15737;49.760;6.632;2022-10-16T14:14:25;1.77;;;1.45;;
28529;SDS011;15737;49.760;6.632;2022-10-16T14:16:54;2.45;;;1.35;;
28529;SDS011;15737;49.760;6.632;2022-10-16T14:21:54;1.40;;;1.33;;
28529;SDS011;15737;49.760;6.632;2022-10-16T14:24:24;1.58;;;1.38;;
28529;SDS011;15737;49.760;6.632;2022-10-16T14:26:52;1.58;;;1.30;;
28529;SDS011;15737;49.760;6.632;2022-10-16T14:29:20;1.60;;;1.50;;
28529;SDS011;15737;49.760;6.632;2022-10-16T14:31:59;1.67;;;1.57;;
28529;SDS011;15737;49.760;6.632;2022-10-16T14:36:56;4.72;;;1.40;;
28529;SDS011;15737;49.760;6.632;2022-10-16T14:39:23;2.13;;;1.42;;
28529;SDS011;15737;49.760;6.632;2022-10-16T14:41:51;2.45;;;1.30;;
28529;SDS011;15737;49.760;6.632;2022-10-16T14:44:17;1.48;;;1.38;;
28529;SDS011;15737;49.760;6.632;2022-10-16T14:46:45;1.08;;;1.08;;
28529;SDS011;15737;49.760;6.632;2022-10-16T14:51:56;5.00;;;1.50;;
28529;SDS011;15737;49.760;6.632;2022-10-16T14:54:22;3.80;;;1.50;;
28529;SDS011;15737;49.760;6.632;2022-10-16T14:56:50;1.80;;;1.70;;
28529;SDS011;15737;49.760;6.632;2022-10-16T14:59:30;1.23;;;1.13;;
28529;SDS011;15737;49.760;6.632;2022-10-16T15:02:06;1.77;;;1.40;;
28529;SDS011;15737;49.760;6.632;2022-10-16T15:04:45;2.17;;;1.50;;
28529;SDS011;15737;49.760;6.632;2022-10-16T15:09:46;1.95;;;1.50;;
28529;SDS011;15737;49.760;6.632;2022-10-16T15:12:12;2.22;;;1.50;;
28529;SDS011;15737;49.760;6.632;2022-10-16T15:14:38;2.00;;;1.50;;
28529;SDS011;15737;49.760;6.632;2022-10-16T15:17:03;1.45;;;1.35;;
28529;SDS011;15737;49.760;6.632;2022-10-16T15:19:30;1.52;;;1.42;;
28529;SDS011;15737;49.760;6.632;2022-10-16T15:21:55;1.60;;;1.50;;
28529;SDS011;15737;49.760;6.632;2022-10-16T15:24:21;2.38;;;1.15;;
28529;SDS011;15737;49.760;6.632;2022-10-16T15:26:46;2.08;;;1.30;;
28529;SDS011;15737;49.760;6.632;2022-10-16T15:29:12;1.80;;;1.02;;
28529;SDS011;15737;49.760;6.632;2022-10-16T15:31:38;3.70;;;1.50;;
28529;SDS011;15737;49.760;6.632;2022-10-16T15:36:39;1.33;;;1.33;;
28529;SDS011;15737;49.760;6.632;2022-10-16T15:39:08;2.70;;;1.40;;
28529;SDS011;15737;49.760;6.632;2022-10-16T15:41:41;1.60;;;1.50;;
28529;SDS011;15737;49.760;6.632;2022-10-16T15:44:07;1.60;;;1.50;;
28529;SDS011;15737;49.760;6.632;2022-10-16T15:46:32;2.88;;;1.30;;
28529;SDS011;15737;49.760;6.632;2022-10-16T15:49:08;1.60;;;1.50;;
28529;SDS011;15737;49.760;6.632;2022-10-16T15:51:34;1.70;;;1.60;;
28529;SDS011;15737;49.760;6.632;2022-10-16T15:54:03;2.42;;;1.40;;
28529;SDS011;15737;49.760;6.632;2022-10-16T15:56:29;2.33;;;1.27;;
28529;SDS011;15737;49.760;6.632;2022-10-16T15:58:57;1.50;;;1.38;;
28529;SDS011;15737;49.760;6.632;2022-10-16T16:01:23;3.03;;;1.27;;
28529;SDS011;15737;49.760;6.632;2022-10-16T16:03:52;2.72;;;1.52;;
28529;SDS011;15737;49.760;6.632;2022-10-16T16:06:34;0.90;;;0.90;;
28529;SDS011;15737;49.760;6.632;2022-10-16T16:09:02;1.30;;;1.20;;
28529;SDS011;15737;49.760;6.632;2022-10-16T16:11:27;3.08;;;1.48;;
28529;SDS011;15737;49.760;6.632;2022-10-16T16:13:53;3.00;;;1.52;;
28529;SDS011;15737;49.760;6.632;2022-10-16T16:16:20;1.40;;;1.30;;
28529;SDS011;15737;49.760;6.632;2022-10-16T16:18:45;2.08;;;1.45;;
28529;SDS011;15737;49.760;6.632;2022-10-16T16:21:13;1.67;;;1.57;;
28529;SDS011;15737;49.760;6.632;2022-10-16T16:23:39;2.15;;;1.23;;
28529;SDS011;15737;49.760;6.632;2022-10-16T16:26:14;2.60;;;1.43;;
28529;SDS011;15737;49.760;6.632;2022-10-16T16:28:50;1.57;;;1.47;;
28529;SDS011;15737;49.760;6.632;2022-10-16T16:31:16;5.57;;;1.70;;
28529;SDS011;15737;49.760;6.632;2022-10-16T16:33:42;2.70;;;1.60;;
28529;SDS011;15737;49.760;6.632;2022-10-16T16:36:07;6.73;;;1.80;;
28529;SDS011;15737;49.760;6.632;2022-10-16T16:38:34;2.40;;;2.00;;
28529;SDS011;15737;49.760;6.632;2022-10-16T16:40:59;2.43;;;1.87;;
28529;SDS011;15737;49.760;6.632;2022-10-16T16:43:35;2.50;;;1.70;;
28529;SDS011;15737;49.760;6.632;2022-10-16T16:46:01;3.57;;;1.90;;
28529;SDS011;15737;49.760;6.632;2022-10-16T16:48:26;2.13;;;1.70;;
28529;SDS011;15737;49.760;6.632;2022-10-16T16:50:52;3.73;;;2.10;;
28529;SDS011;15737;49.760;6.632;2022-10-16T16:53:17;5.03;;;1.97;;
28529;SDS011;15737;49.760;6.632;2022-10-16T16:55:43;2.03;;;1.77;;
28529;SDS011;15737;49.760;6.632;2022-10-16T16:58:09;5.50;;;2.20;;
28529;SDS011;15737;49.760;6.632;2022-10-16T17:00:34;1.50;;;1.40;;
28529;SDS011;15737;49.760;6.632;2022-10-16T17:02:59;3.93;;;2.13;;
28529;SDS011;15737;49.760;6.632;2022-10-16T17:05:25;2.40;;;1.73;;
28529;SDS011;15737;49.760;6.632;2022-10-16T17:07:51;5.20;;;2.30;;
28529;SDS011;15737;49.760;6.632;2022-10-16T17:10:16;2.43;;;2.13;;
28529;SDS011;15737;49.760;6.632;2022-10-16T17:12:42;4.00;;;2.33;;
28529;SDS011;15737;49.760;6.632;2022-10-16T17:15:15;2.67;;;2.47;;
28529;SDS011;15737;49.760;6.632;2022-10-16T17:17:40;4.23;;;2.70;;
28529;SDS011;15737;49.760;6.632;2022-10-16T17:20:06;4.57;;;2.87;;